Time;durP1;ratioP1;P1;durP2;ratioP2;P2;SDS_P1;SDS_P2;PMS_P1;PMS_P2;Temp;Humidity;BMP_temperature;BMP_pressure;BME280_temperature;BME280_humidity;BME280_pressure;Samples;Min_cycle;Max_cycle;Signal;HPM_P1;HPM_P2
2022/08/14 00:02:53;;;;;;;7.45;4.65;;;;;;;21.30;42.17;101143.53;10341433;28;20132;-68
2022/08/14 00:07:53;;;;;;;4.82;3.78;;;;;;;21.20;42.20;101137.94;10324951;28;20054;-68
2022/08/14 00:12:54;;;;;;;4.03;3.72;;;;;;;21.09;42.51;101126.84;10340406;28;20030;-69
2022/08/14 00:17:55;;;;;;;10.80;4.22;;;;;;;21.04;42.74;101124.03;10322999;28;20117;-68
2022/08/14 00:22:55;;;;;;;6.35;4.95;;;;;;;20.93;42.68;101116.81;10322567;28;20034;-69
2022/08/14 00:27:56;;;;;;;5.05;3.83;;;;;;;20.84;42.76;101113.69;10339950;28;20080;-68
2022/08/14 00:32:56;;;;;;;4.28;3.88;;;;;;;20.79;43.12;101118.31;10339759;28;20030;-68
2022/08/14 00:37:57;;;;;;;4.70;3.55;;;;;;;20.71;43.36;101108.59;10341525;28;20054;-69
2022/08/14 00:42:57;;;;;;;4.32;3.92;;;;;;;20.56;43.48;101100.19;10322008;28;20038;-68
2022/08/14 00:47:57;;;;;;;10.43;4.15;;;;;;;20.46;43.59;101089.88;10306496;28;20042;-69
2022/08/14 00:53:02;;;;;;;5.35;4.47;;;;;;;20.38;43.91;101093.91;10339040;28;20470;-68
2022/08/14 01:03:22;;;;;;;6.20;4.90;;;;;;;20.23;44.52;101085.50;10323984;28;20046;-68
2022/08/14 01:08:25;;;;;;;4.88;4.47;;;;;;;20.32;46.86;101066.59;10290457;28;20030;-68
2022/08/14 01:13:31;;;;;;;6.45;5.95;;;;;;;20.46;47.36;101072.53;10338214;28;20034;-68
2022/08/14 01:23:52;;;;;;;9.15;6.25;;;;;;;20.62;49.17;101064.22;10310106;28;20046;-68
2022/08/14 01:28:54;;;;;;;6.43;5.68;;;;;;;20.63;49.29;101065.84;10337851;28;20129;-69
2022/08/14 01:33:56;;;;;;;8.90;6.65;;;;;;;20.63;47.91;101057.59;10321460;28;20108;-68
2022/08/14 01:38:57;;;;;;;6.75;5.95;;;;;;;20.56;47.20;101051.50;10322424;28;20054;-69
2022/08/14 01:44:00;;;;;;;6.90;6.25;;;;;;;20.43;47.38;101055.47;10337198;28;20034;-69
2022/08/14 01:49:02;;;;;;;5.75;4.72;;;;;;;20.29;47.21;101042.38;10319631;28;20113;-68
2022/08/14 01:54:08;;;;;;;5.93;5.32;;;;;;;20.18;47.72;101053.25;10336618;28;20482;-68
2022/08/14 01:59:14;;;;;;;7.13;6.43;;;;;;;20.04;47.63;101049.25;10319734;28;20026;-68
2022/08/14 02:04:15;;;;;;;7.03;6.43;;;;;;;19.93;47.35;101041.97;10320364;28;20054;-68
2022/08/14 02:09:16;;;;;;;6.28;5.70;;;;;;;19.80;47.29;101026.69;10319299;28;20066;-69
2022/08/14 02:14:16;;;;;;;7.25;5.82;;;;;;;19.74;47.71;101031.28;10335925;28;20468;-68
2022/08/14 02:19:21;;;;;;;9.40;6.70;;;;;;;19.68;47.98;101024.06;10335732;28;20069;-69
2022/08/14 02:24:22;;;;;;;7.82;7.00;;;;;;;19.66;49.04;101007.03;10335000;28;20438;-68
2022/08/14 02:29:24;;;;;;;8.07;6.47;;;;;;;19.70;48.96;101019.16;10317544;28;20145;-68
2022/08/14 02:34:31;;;;;;;11.57;7.13;;;;;;;19.72;49.94;101002.44;10335481;28;20054;-69
2022/08/14 02:39:33;;;;;;;7.78;6.35;;;;;;;19.75;50.14;101010.16;10335415;28;20034;-68
2022/08/14 02:44:33;;;;;;;12.10;7.18;;;;;;;19.68;51.23;101010.31;10338362;28;20062;-69
2022/08/14 02:49:34;;;;;;;8.38;6.88;;;;;;;19.62;51.40;100996.75;10319958;28;20061;-69
2022/08/14 02:54:35;;;;;;;6.18;5.63;;;;;;;19.65;51.19;101002.59;10338006;28;20039;-69
2022/08/14 02:59:36;;;;;;;10.35;7.05;;;;;;;19.59;51.39;100991.75;10302892;28;20030;-69
2022/08/14 03:04:37;;;;;;;6.20;5.68;;;;;;;19.56;51.93;100992.28;10318967;28;20038;-68
2022/08/14 03:09:38;;;;;;;7.70;6.90;;;;;;;19.50;52.24;100983.16;10317208;28;20041;-68
2022/08/14 03:14:44;;;;;;;7.32;6.72;;;;;;;19.47;53.12;100983.66;10333940;28;20042;-68
2022/08/14 03:19:44;;;;;;;12.57;6.97;;;;;;;19.39;54.95;100975.84;10333282;28;20061;-69
2022/08/14 03:24:44;;;;;;;8.00;6.82;;;;;;;19.49;55.32;100981.47;10333621;28;20042;-68
2022/08/14 03:29:45;;;;;;;8.25;7.30;;;;;;;19.51;55.69;100976.56;10315527;28;20096;-68
2022/08/14 03:34:45;;;;;;;12.73;7.18;;;;;;;19.48;54.50;100982.56;10333580;28;20063;-68
2022/08/14 03:39:46;;;;;;;8.93;7.03;;;;;;;19.37;54.58;100969.78;10315969;28;20038;-70
2022/08/14 03:44:47;;;;;;;13.02;6.15;;;;;;;19.26;54.83;100971.56;10317470;28;20097;-68
2022/08/14 03:49:47;;;;;;;10.45;7.82;;;;;;;19.18;56.09;100972.84;10334020;28;20073;-69
2022/08/14 03:54:48;;;;;;;8.48;7.18;;;;;;;19.12;55.28;100962.88;10333197;28;20046;-70
2022/08/14 03:59:48;;;;;;;11.00;6.87;;;;;;;19.02;56.09;100970.97;10319901;28;20038;-69
2022/08/14 04:04:49;;;;;;;7.90;6.85;;;;;;;18.96;56.51;100963.75;10336155;28;20746;-69
2022/08/14 04:09:49;;;;;;;7.43;6.82;;;;;;;18.89;55.68;100960.31;10333725;28;20374;-69
2022/08/14 04:14:51;;;;;;;7.95;7.20;;;;;;;18.81;55.52;100958.84;10333324;28;20038;-69
2022/08/14 04:19:51;;;;;;;10.52;7.30;;;;;;;18.73;55.48;100957.38;10333284;28;20069;-69
2022/08/14 04:24:52;;;;;;;9.18;8.13;;;;;;;18.65;55.58;100955.00;10332540;28;20040;-69
2022/08/14 04:29:52;;;;;;;10.65;8.05;;;;;;;18.61;55.65;100959.31;10332618;28;20045;-69
2022/08/14 04:34:53;;;;;;;10.55;7.97;;;;;;;18.58;55.78;100959.81;10321516;28;20086;-69
2022/08/14 04:45:14;;;;;;;10.27;9.25;;;;;;;18.57;57.35;100931.56;10324683;28;20038;-69
2022/08/14 04:50:14;;;;;;;14.15;7.90;;;;;;;18.63;56.92;100934.38;10323211;28;20039;-68
2022/08/14 04:55:15;;;;;;;12.20;9.52;;;;;;;18.62;57.93;100939.03;10338901;28;20112;-69
2022/08/14 05:00:15;;;;;;;13.32;7.22;;;;;;;18.68;58.11;100937.22;10338855;28;20037;-68
2022/08/14 05:05:16;;;;;;;9.95;8.95;;;;;;;18.79;59.89;100933.56;10339293;28;20073;-69
2022/08/14 05:10:22;;;;;;;12.60;9.68;;;;;;;18.91;59.15;100927.97;10321001;28;20493;-69
2022/08/14 05:15:24;;;;;;;11.13;9.20;;;;;;;18.96;61.86;100917.91;10339336;28;20103;-69
2022/08/14 05:20:24;;;;;;;10.23;9.20;;;;;;;19.11;60.43;100916.44;10339367;28;20092;-68
2022/08/14 05:25:25;;;;;;;12.45;9.45;;;;;;;19.21;61.04;100909.19;10337183;28;20073;-70
2022/08/14 05:30:25;;;;;;;19.90;10.13;;;;;;;19.27;60.70;100908.19;10337562;28;20462;-69
2022/08/14 05:35:26;;;;;;;11.18;9.52;;;;;;;19.54;65.35;100906.56;10320092;28;20137;-68
2022/08/14 05:40:26;;;;;;;10.70;9.07;;;;;;;20.85;62.64;100910.81;10337848;28;20030;-69
2022/08/14 05:45:28;;;;;;;9.82;8.82;;;;;;;21.90;61.98;100907.97;10336539;28;20073;-68
2022/08/14 05:50:28;;;;;;;8.93;8.05;;;;;;;22.46;60.22;100907.19;10337532;28;20034;-67
2022/08/14 05:55:29;;;;;;;9.73;8.73;;;;;;;22.61;58.39;100909.13;10337186;28;20161;-68
2022/08/14 06:00:35;;;;;;;10.27;8.70;;;;;;;22.94;57.84;100907.69;10320132;28;20374;-68
2022/08/14 06:05:35;;;;;;;10.00;8.53;;;;;;;23.54;56.58;100918.81;10304357;28;20026;-68
2022/08/14 06:10:35;;;;;;;11.07;9.93;;;;;;;24.01;54.80;100909.19;10302640;28;20030;-68
2022/08/14 06:15:36;;;;;;;11.57;10.15;;;;;;;24.34;54.71;100904.75;10318337;28;20045;-68
2022/08/14 06:20:36;;;;;;;9.55;8.48;;;;;;;24.67;53.48;100899.53;10335458;28;20042;-67
2022/08/14 06:25:37;;;;;;;9.55;8.73;;;;;;;24.96;52.53;100902.28;10335953;28;20034;-67
2022/08/14 06:30:38;;;;;;;10.45;9.35;;;;;;;25.33;51.78;100914.59;10320390;28;20058;-67
2022/08/14 06:35:39;;;;;;;9.63;8.48;;;;;;;25.75;50.44;100917.38;10335983;28;20062;-67
2022/08/14 06:40:39;;;;;;;10.02;9.05;;;;;;;25.98;49.54;100901.81;10334766;28;20038;-68
2022/08/14 06:45:40;;;;;;;12.32;9.23;;;;;;;26.16;48.83;100894.59;10318262;28;20056;-67
2022/08/14 06:50:41;;;;;;;10.75;9.18;;;;;;;26.54;48.32;100888.97;10334943;28;20443;-67
2022/08/14 06:55:41;;;;;;;9.48;8.68;;;;;;;26.85;47.51;100878.09;10333867;28;20089;-68
2022/08/14 07:06:03;;;;;;;9.80;8.82;;;;;;;27.28;45.62;100877.00;10333740;28;20035;-67
2022/08/14 07:11:03;;;;;;;10.30;9.35;;;;;;;27.83;45.29;100864.97;10333035;28;20454;-67
2022/08/14 07:16:04;;;;;;;11.05;9.32;;;;;;;28.18;44.37;100866.88;10317781;28;20046;-68
2022/08/14 07:21:05;;;;;;;9.55;8.65;;;;;;;28.42;43.98;100879.66;10316875;28;20034;-67
2022/08/14 07:26:05;;;;;;;10.10;8.98;;;;;;;28.71;42.75;100881.94;10317163;28;20034;-67
2022/08/14 07:31:07;;;;;;;11.00;9.27;;;;;;;29.13;43.03;100872.16;10317608;28;20034;-67
2022/08/14 07:36:09;;;;;;;9.63;7.35;;;;;;;29.83;42.54;100875.88;10317953;28;20050;-76
2022/08/14 07:41:11;;;;;;;9.95;9.00;;;;;;;30.18;40.67;100877.84;10302803;28;20030;-71
2022/08/14 07:46:12;;;;;;;12.93;8.95;;;;;;;30.06;39.36;100870.97;10317269;28;20038;-71
2022/08/14 07:51:13;;;;;;;8.02;7.22;;;;;;;30.50;40.63;100863.34;10299071;28;20027;-71
2022/08/14 07:56:13;;;;;;;10.80;7.83;;;;;;;30.98;39.12;100861.38;10332978;28;20390;-71
2022/08/14 08:01:14;;;;;;;8.73;8.03;;;;;;;31.19;38.43;100859.47;10332792;28;20267;-75
2022/08/14 08:06:15;;;;;;;7.75;7.07;;;;;;;31.06;38.35;100856.91;10286579;28;20272;-71
2022/08/14 08:11:18;;;;;;;15.55;8.77;;;;;;;31.45;37.79;100850.91;10306885;28;20032;-72
2022/08/14 08:16:22;;;;;;;10.43;8.13;;;;;;;31.85;37.82;100846.84;10323562;28;20030;-71
2022/08/14 08:21:22;;;;;;;7.68;7.07;;;;;;;31.94;36.61;100833.56;10324300;28;20527;-71
2022/08/14 08:26:28;;;;;;;7.13;6.43;;;;;;;32.13;36.13;100836.72;10340230;28;20042;-71
2022/08/14 08:31:29;;;;;;;6.18;5.68;;;;;;;32.67;36.68;100838.59;10341013;28;20038;-72
2022/08/14 08:36:39;;;;;;;7.38;6.40;;;;;;;32.78;36.10;100828.56;10339256;28;20054;-72
2022/08/14 08:41:46;;;;;;;10.85;7.50;;;;;;;33.15;35.00;100836.97;10305440;28;20484;-71
2022/08/14 08:46:55;;;;;;;13.95;7.20;;;;;;;33.04;35.34;100828.22;10339267;28;20073;-72
2022/08/14 08:52:03;;;;;;;8.48;7.57;;;;;;;33.53;34.70;100808.50;10325550;28;20023;-73
2022/08/14 08:57:10;;;;;;;8.95;6.82;;;;;;;34.00;33.78;100821.91;10324887;28;20038;-73
2022/08/14 09:02:10;;;;;;;8.30;6.35;;;;;;;34.24;33.81;100821.00;10347283;28;20068;-72
2022/08/14 09:07:12;;;;;;;6.25;5.75;;;;;;;34.26;34.05;100817.81;10338494;28;20046;-70
2022/08/14 09:12:12;;;;;;;6.80;5.80;;;;;;;34.74;33.81;100804.59;10337340;28;20433;-69
2022/08/14 09:17:13;;;;;;;5.38;4.88;;;;;;;35.10;33.71;100806.31;10337094;28;20124;-67
2022/08/14 09:22:13;;;;;;;6.00;5.53;;;;;;;35.26;31.48;100800.66;10303875;28;20560;-72
2022/08/14 09:27:14;;;;;;;4.78;4.47;;;;;;;35.49;30.64;100797.91;10320872;28;20118;-73
2022/08/14 09:32:22;;;;;;;3.95;3.65;;;;;;;35.68;31.13;100785.06;10319564;28;20484;-70
2022/08/14 09:37:32;;;;;;;5.88;4.55;;;;;;;36.23;30.94;100794.19;10276233;28;20086;-75
2022/08/14 09:42:51;;;;;;;5.38;4.88;;;;;;;35.94;31.68;100776.72;10295626;28;20039;-71
2022/08/14 09:47:54;;;;;;;8.98;5.45;;;;;;;35.65;32.09;100772.53;10295851;28;20031;-70
2022/08/14 09:53:01;;;;;;;4.68;4.32;;;;;;;35.89;28.97;100759.28;10294113;28;20027;-71
2022/08/14 09:58:13;;;;;;;11.20;4.72;;;;;;;36.46;30.37;100754.69;10294292;28;20050;-67
2022/08/14 10:03:32;;;;;;;4.97;4.47;;;;;;;36.72;29.45;100749.09;10295004;28;20062;-69
2022/08/14 10:08:43;;;;;;;5.10;4.70;;;;;;;37.60;29.81;100742.28;10295766;28;20383;-71
2022/08/14 10:13:51;;;;;;;5.20;4.72;;;;;;;37.37;29.15;100735.94;10279261;28;20062;-69
2022/08/14 10:19:05;;;;;;;5.90;3.97;;;;;;;37.61;26.87;100726.94;10296774;28;20037;-70
2022/08/14 10:24:08;;;;;;;3.93;3.73;;;;;;;37.46;26.43;100731.63;10294110;28;20034;-70
2022/08/14 10:29:10;;;;;;;4.13;3.80;;;;;;;37.55;27.83;100716.38;10294034;28;20043;-69
2022/08/14 10:34:11;;;;;;;4.95;4.55;;;;;;;37.90;27.85;100724.41;10294469;28;20047;-70
2022/08/14 10:39:17;;;;;;;4.03;3.72;;;;;;;37.86;27.99;100715.91;10277617;28;20054;-69
2022/08/14 10:44:20;;;;;;;4.55;4.25;;;;;;;37.62;27.52;100706.00;10293189;28;20030;-69
2022/08/14 10:49:22;;;;;;;3.85;3.55;;;;;;;37.24;26.52;100707.94;10293452;28;20031;-68
2022/08/14 10:54:30;;;;;;;7.70;4.00;;;;;;;37.67;25.67;100707.63;10294580;28;20034;-69
2022/08/14 10:59:40;;;;;;;3.75;3.45;;;;;;;37.44;26.03;100700.09;10277352;28;20035;-70
2022/08/14 11:04:40;;;;;;;4.50;4.20;;;;;;;37.33;26.78;100698.34;10293728;28;20042;-69
2022/08/14 11:09:52;;;;;;;3.72;3.42;;;;;;;37.79;26.21;100698.09;10294781;28;20529;-68
2022/08/14 11:14:54;;;;;;;5.65;5.15;;;;;;;37.69;26.57;100694.75;10294547;28;20352;-69
2022/08/14 11:19:56;;;;;;;5.55;5.05;;;;;;;37.78;26.82;100687.97;10293220;28;20390;-68
2022/08/14 11:25:00;;;;;;;5.35;4.95;;;;;;;37.65;26.20;100693.06;10292540;28;20038;-71
2022/08/14 11:30:09;;;;;;;4.87;4.43;;;;;;;37.79;25.19;100698.88;10276347;28;20072;-69
2022/08/14 11:35:23;;;;;;;4.53;4.22;;;;;;;37.74;26.25;100687.94;10300536;28;20121;-68
2022/08/14 11:40:34;;;;;;;5.32;4.82;;;;;;;37.05;25.94;100693.13;10335252;28;20045;-70
2022/08/14 11:45:38;;;;;;;4.10;3.80;;;;;;;37.47;25.15;100678.78;10342895;28;20037;-69
2022/08/14 11:50:39;;;;;;;4.55;3.78;;;;;;;37.56;25.39;100679.28;10292610;28;20031;-68
2022/08/14 11:55:39;;;;;;;4.13;3.83;;;;;;;37.72;24.92;100664.06;10341066;28;20126;-68
2022/08/14 12:00:49;;;;;;;4.97;4.57;;;;;;;37.62;25.44;100657.97;10324216;28;20026;-68
2022/08/14 12:05:50;;;;;;;3.83;3.53;;;;;;;37.86;23.63;100638.78;10306820;28;20771;-68
2022/08/14 12:10:50;;;;;;;3.58;3.38;;;;;;;37.86;25.36;100644.44;10341008;28;20038;-67
2022/08/14 12:16:02;;;;;;;3.08;2.88;;;;;;;37.56;23.62;100636.91;10291313;28;20363;-68
2022/08/14 12:21:13;;;;;;;2.97;2.78;;;;;;;37.57;23.51;100632.06;10323475;28;20030;-69
2022/08/14 12:26:19;;;;;;;4.03;3.80;;;;;;;37.34;24.25;100623.72;10340918;28;20041;-69
2022/08/14 12:31:19;;;;;;;3.50;3.30;;;;;;;37.62;23.74;100615.56;10324319;28;20035;-68
2022/08/14 12:36:20;;;;;;;3.65;3.45;;;;;;;37.82;24.53;100613.31;10305980;28;20061;-69
2022/08/14 12:41:21;;;;;;;2.85;2.67;;;;;;;37.81;22.18;100605.22;10322031;28;20034;-69
2022/08/14 12:46:23;;;;;;;3.13;2.90;;;;;;;37.72;20.93;100608.41;10339267;28;20041;-68
2022/08/14 12:51:25;;;;;;;4.75;3.95;;;;;;;37.41;21.67;100604.03;10337880;28;20390;-69
2022/08/14 12:56:26;;;;;;;3.15;2.50;;;;;;;37.99;23.08;100600.56;10338811;28;20481;-68
2022/08/14 13:01:28;;;;;;;4.45;3.00;;;;;;;37.92;21.75;100589.19;10338680;28;20050;-70
2022/08/14 13:06:28;;;;;;;3.08;2.88;;;;;;;37.30;21.76;100580.50;10338712;28;20046;-67
2022/08/14 13:11:50;;;;;;;3.30;3.00;;;;;;;37.25;22.93;100578.84;10288822;28;20386;-67
2022/08/14 13:16:54;;;;;;;3.40;3.20;;;;;;;37.82;23.09;100573.75;10323736;28;20316;-72
2022/08/14 13:21:54;;;;;;;2.90;2.70;;;;;;;37.51;21.33;100569.44;10338038;28;20121;-66
2022/08/14 13:26:57;;;;;;;3.03;2.83;;;;;;;37.16;22.50;100567.84;10306198;28;20053;-67
2022/08/14 13:31:57;;;;;;;7.55;3.15;;;;;;;37.03;22.96;100555.22;10320980;28;20601;-67
2022/08/14 13:36:57;;;;;;;3.40;3.20;;;;;;;36.42;22.25;100559.25;10338973;28;20148;-68
2022/08/14 13:42:02;;;;;;;3.72;3.42;;;;;;;35.07;23.63;100552.91;10338205;28;20054;-69
2022/08/14 13:47:05;;;;;;;4.20;3.47;;;;;;;35.43;23.80;100556.41;10339699;28;20041;-68
2022/08/14 13:52:06;;;;;;;3.88;3.58;;;;;;;36.00;23.17;100554.59;10338988;28;20061;-68
2022/08/14 13:57:06;;;;;;;5.70;3.63;;;;;;;35.81;23.22;100547.03;10288528;28;20105;-67
2022/08/14 14:02:07;;;;;;;3.27;3.07;;;;;;;35.51;24.07;100546.88;10287520;28;20030;-68
2022/08/14 14:07:10;;;;;;;3.72;3.53;;;;;;;35.08;24.47;100529.25;10336619;28;20663;-67
2022/08/14 14:12:11;;;;;;;3.08;2.95;;;;;;;35.66;24.18;100520.63;10319427;28;20089;-69
2022/08/14 14:17:12;;;;;;;5.18;4.40;;;;;;;34.99;25.05;100525.81;10318983;28;20042;-69
2022/08/14 14:22:16;;;;;;;7.78;4.50;;;;;;;34.11;25.95;100520.72;10318588;28;20035;-69
2022/08/14 14:27:18;;;;;;;4.22;3.92;;;;;;;34.28;26.06;100517.50;10336855;28;20034;-70
2022/08/14 14:32:18;;;;;;;6.13;4.20;;;;;;;33.81;26.84;100524.03;10303719;28;20109;-68
2022/08/14 14:37:19;;;;;;;4.82;4.50;;;;;;;33.31;27.02;100515.16;10263284;28;20050;-67
2022/08/14 14:42:19;;;;;;;7.38;4.60;;;;;;;33.96;26.66;100511.94;10294933;28;20058;-68
2022/08/14 14:47:20;;;;;;;7.75;4.78;;;;;;;34.65;26.42;100492.63;10294864;28;20085;-68
2022/08/14 14:52:22;;;;;;;9.85;4.30;;;;;;;34.47;26.18;100494.22;10294162;28;20117;-68
2022/08/14 14:57:23;;;;;;;4.88;4.45;;;;;;;34.33;26.86;100489.09;10294698;28;20066;-68
2022/08/14 15:02:33;;;;;;;3.90;3.60;;;;;;;33.82;26.78;100480.69;10294641;28;20038;-69
2022/08/14 15:07:34;;;;;;;4.20;3.90;;;;;;;33.50;27.53;100477.13;10277880;28;20041;-68
2022/08/14 15:12:35;;;;;;;4.20;3.80;;;;;;;33.31;27.68;100483.44;10292837;28;20529;-68
2022/08/14 15:17:36;;;;;;;8.73;5.43;;;;;;;33.28;27.98;100470.13;10293545;28;20162;-69
2022/08/14 15:22:39;;;;;;;3.90;3.47;;;;;;;33.05;28.06;100461.53;10293024;28;20045;-68
2022/08/14 15:27:40;;;;;;;4.38;4.07;;;;;;;32.71;28.69;100468.59;10294179;28;20035;-67
2022/08/14 15:32:40;;;;;;;5.25;4.82;;;;;;;32.38;28.39;100467.63;10291824;28;20462;-67
2022/08/14 15:37:41;;;;;;;4.78;4.32;;;;;;;32.31;28.89;100463.81;10291655;28;20447;-68
2022/08/14 15:42:41;;;;;;;9.98;4.68;;;;;;;32.47;28.74;100459.13;10292601;28;20031;-68
2022/08/14 15:47:41;;;;;;;4.70;4.30;;;;;;;32.49;28.75;100447.56;10292421;28;20046;-68
2022/08/14 15:52:42;;;;;;;4.90;4.50;;;;;;;32.60;28.88;100455.06;10291634;28;20082;-67
2022/08/14 15:57:44;;;;;;;5.93;4.45;;;;;;;32.53;29.17;100440.88;10291880;28;20538;-69
2022/08/14 16:02:45;;;;;;;5.00;4.65;;;;;;;32.34;29.28;100433.09;10292893;28;20035;-69
2022/08/14 16:07:45;;;;;;;4.72;4.32;;;;;;;32.24;29.59;100435.59;10292628;28;20031;-67
2022/08/14 16:12:45;;;;;;;5.17;4.07;;;;;;;32.07;29.52;100440.31;10293191;28;20042;-68
2022/08/14 16:17:46;;;;;;;6.18;5.05;;;;;;;32.00;29.86;100422.47;10292815;28;20351;-69
2022/08/14 16:22:47;;;;;;;4.47;4.07;;;;;;;31.91;30.07;100420.63;10293367;28;20039;-67
2022/08/14 16:27:47;;;;;;;4.03;3.67;;;;;;;31.79;30.02;100425.41;10296526;28;20038;-67
2022/08/14 16:32:48;;;;;;;4.00;3.70;;;;;;;31.63;29.79;100426.13;10282912;28;20027;-68
2022/08/14 16:37:48;;;;;;;6.45;4.22;;;;;;;31.41;29.80;100419.03;10297723;28;20063;-68
2022/08/14 16:42:51;;;;;;;4.13;3.63;;;;;;;31.45;29.64;100421.94;10298680;28;20031;-67
2022/08/14 16:47:52;;;;;;;6.32;4.60;;;;;;;31.30;30.48;100419.81;10298415;28;20763;-67
2022/08/14 16:52:52;;;;;;;4.70;4.40;;;;;;;31.17;30.49;100417.00;10297551;28;20113;-67
2022/08/14 16:57:53;;;;;;;4.80;4.22;;;;;;;31.02;31.35;100409.31;10297639;28;20503;-68
2022/08/14 17:03:05;;;;;;;5.13;4.63;;;;;;;30.89;31.56;100402.88;10297386;28;20106;-68
2022/08/14 17:08:07;;;;;;;4.68;4.28;;;;;;;30.80;31.74;100407.75;10297555;28;20046;-69
2022/08/14 17:13:17;;;;;;;5.25;4.75;;;;;;;30.75;32.22;100400.34;10298070;28;20035;-68
2022/08/14 17:18:34;;;;;;;4.90;4.60;;;;;;;30.71;32.39;100395.81;10295568;28;20113;-68
2022/08/14 17:23:35;;;;;;;4.35;4.05;;;;;;;30.66;32.18;100388.47;10297987;28;20378;-67
2022/08/14 17:28:35;;;;;;;11.95;4.95;;;;;;;30.58;32.19;100381.00;10265151;28;20079;-67
2022/08/14 17:33:36;;;;;;;11.00;4.30;;;;;;;30.45;32.76;100376.53;10297414;28;20470;-68
2022/08/14 17:38:37;;;;;;;4.85;4.45;;;;;;;30.34;32.17;100368.59;10296726;28;20071;-67
2022/08/14 17:43:39;;;;;;;6.13;5.63;;;;;;;30.21;32.95;100378.06;10280807;28;20107;-68
2022/08/14 17:48:40;;;;;;;6.78;4.50;;;;;;;30.05;32.91;100379.81;10295554;28;20035;-68
2022/08/14 17:53:40;;;;;;;4.65;4.35;;;;;;;29.96;32.92;100379.09;10296730;28;20356;-67
2022/08/14 17:58:41;;;;;;;5.13;4.68;;;;;;;29.76;33.95;100387.13;10279948;28;20035;-68
2022/08/14 18:03:41;;;;;;;6.65;5.13;;;;;;;29.60;34.45;100386.06;10294879;28;20462;-67
2022/08/14 18:08:42;;;;;;;6.75;5.47;;;;;;;29.27;36.11;100402.66;10294360;28;20031;-68
2022/08/14 18:13:43;;;;;;;6.65;5.30;;;;;;;28.93;36.90;100399.63;10278750;28;20454;-68
2022/08/14 18:18:44;;;;;;;6.13;5.50;;;;;;;28.70;36.79;100393.50;10278565;28;20069;-67
2022/08/14 18:23:45;;;;;;;6.22;5.68;;;;;;;28.46;37.61;100394.06;10295736;28;20031;-67
2022/08/14 18:28:45;;;;;;;12.45;5.28;;;;;;;28.25;37.91;100387.50;10294620;28;20093;-67
2022/08/14 18:33:53;;;;;;;7.00;5.27;;;;;;;28.05;37.43;100387.00;10277426;28;20030;-68
2022/08/14 18:39:19;;;;;;;9.65;5.97;;;;;;;27.86;38.30;100382.91;10295036;28;20307;-69
2022/08/14 18:44:47;;;;;;;6.75;6.07;;;;;;;27.69;38.87;100380.88;10297225;28;20031;-68
2022/08/14 18:49:59;;;;;;;5.80;5.30;;;;;;;27.57;38.36;100387.91;10295086;28;20038;-67
2022/08/14 18:55:34;;;;;;;5.57;5.05;;;;;;;27.39;38.57;100386.22;10294762;28;20067;-69
2022/08/14 19:00:42;;;;;;;16.75;6.13;;;;;;;27.19;38.45;100378.50;10262832;28;20119;-69
2022/08/14 19:05:47;;;;;;;11.32;6.03;;;;;;;27.08;38.26;100389.84;10295210;28;20114;-67
2022/08/14 19:10:53;;;;;;;7.05;5.78;;;;;;;26.95;38.77;100390.78;10294129;28;20059;-69
2022/08/14 19:16:15;;;;;;;5.68;5.05;;;;;;;26.82;38.97;100386.16;10292705;28;20063;-68
2022/08/14 19:21:23;;;;;;;6.30;5.70;;;;;;;26.72;39.04;100390.00;10292607;28;20026;-68
2022/08/14 19:26:27;;;;;;;5.32;4.82;;;;;;;26.61;38.59;100394.19;10292727;28;20038;-68
2022/08/14 19:31:27;;;;;;;15.23;5.70;;;;;;;26.51;38.38;100389.72;10292433;28;20027;-67
2022/08/14 19:36:44;;;;;;;6.00;5.40;;;;;;;26.42;38.82;100394.38;10310119;28;20053;-67
2022/08/14 19:41:44;;;;;;;;;;;;;;;26.33;38.28;100391.53;10333973;28;20038;-68
2022/08/14 19:46:52;;;;;;;9.50;5.95;;;;;;;26.21;39.25;100389.31;10333798;28;19922;-68
2022/08/14 19:51:52;;;;;;;5.28;4.90;;;;;;;26.16;38.69;100391.41;10316285;28;20121;-69
2022/08/14 19:56:52;;;;;;;5.10;4.70;;;;;;;26.09;39.13;100402.13;10332625;28;20049;-67
2022/08/14 20:01:53;;;;;;;11.00;5.13;;;;;;;25.98;39.30;100396.81;10318018;28;20057;-68
2022/08/14 20:06:54;;;;;;;6.05;5.25;;;;;;;25.94;39.24;100397.72;10324835;28;20260;-68
2022/08/14 20:11:54;;;;;;;4.95;4.55;;;;;;;25.89;39.15;100395.91;10323492;28;20124;-67
2022/08/14 20:16:57;;;;;;;5.03;4.13;;;;;;;25.81;39.62;100390.28;10341985;28;20053;-68
2022/08/14 20:21:59;;;;;;;10.98;5.57;;;;;;;25.73;39.18;100389.03;10323483;28;20481;-67
2022/08/14 20:27:21;;;;;;;5.13;4.63;;;;;;;25.66;39.75;100399.75;10339815;28;20038;-68
2022/08/14 20:32:21;;;;;;;7.13;5.07;;;;;;;25.55;39.76;100393.59;10339678;28;20030;-68
2022/08/14 20:37:22;;;;;;;5.80;5.30;;;;;;;25.50;40.48;100399.25;10320874;28;20446;-66
2022/08/14 20:47:59;;;;;;;6.20;5.70;;;;;;;25.48;40.46;100388.47;10325013;28;20081;-68
2022/08/14 20:53:00;;;;;;;5.85;5.35;;;;;;;25.44;40.10;100389.41;10338921;28;20038;-68
2022/08/14 20:58:04;;;;;;;5.63;5.07;;;;;;;25.40;40.71;100380.03;10322719;28;20038;-68
2022/08/14 21:03:42;;;;;;;5.75;5.10;;;;;;;25.31;41.38;100377.19;10338934;28;20089;-67
2022/08/14 21:08:44;;;;;;;7.15;5.63;;;;;;;25.23;40.66;100375.94;10338682;28;20026;-67
2022/08/14 21:13:45;;;;;;;10.48;6.30;;;;;;;25.16;40.65;100374.72;10305245;28;20443;-67
2022/08/14 21:18:45;;;;;;;5.95;5.45;;;;;;;25.11;41.02;100364.56;10338319;28;20117;-68
2022/08/14 21:23:50;;;;;;;11.00;5.25;;;;;;;24.99;41.10;100351.22;10320900;28;20054;-67
2022/08/14 21:28:51;;;;;;;6.55;5.82;;;;;;;24.92;41.12;100358.25;10320471;28;20042;-67
2022/08/14 21:33:51;;;;;;;5.22;4.75;;;;;;;24.79;41.11;100368.19;10338557;28;20037;-66
2022/08/14 21:38:52;;;;;;;14.48;6.47;;;;;;;24.62;41.44;100357.72;10338481;28;20054;-67
2022/08/14 21:44:15;;;;;;;9.43;7.30;;;;;;;24.45;42.39;100361.09;10320669;28;20026;-68
2022/08/14 21:49:21;;;;;;;8.77;6.57;;;;;;;24.31;42.22;100363.78;10323314;28;20065;-67
2022/08/14 21:54:23;;;;;;;5.80;5.22;;;;;;;24.12;42.16;100346.38;10319721;28;20492;-68
2022/08/14 21:59:25;;;;;;;6.95;6.30;;;;;;;24.02;42.72;100350.13;10318934;28;20134;-66
2022/08/14 22:04:26;;;;;;;6.63;6.03;;;;;;;23.93;43.07;100351.09;10319044;28;20084;-68
2022/08/14 22:09:27;;;;;;;7.88;6.78;;;;;;;23.87;43.13;100347.63;10337449;28;20052;-65
2022/08/14 22:14:27;;;;;;;9.55;6.95;;;;;;;23.78;43.26;100355.75;10318920;28;20121;-68
2022/08/14 22:19:29;;;;;;;8.73;6.18;;;;;;;23.71;43.79;100351.72;10320815;28;20042;-67
2022/08/14 22:24:29;;;;;;;17.30;7.53;;;;;;;23.62;43.96;100351.53;10335175;28;20427;-67
2022/08/14 22:29:32;;;;;;;8.90;6.75;;;;;;;23.49;44.31;100338.47;10317648;28;20121;-67
2022/08/14 22:34:32;;;;;;;7.43;6.55;;;;;;;23.36;44.51;100340.03;10318890;28;20110;-67
2022/08/14 22:39:33;;;;;;;10.13;7.43;;;;;;;23.32;45.11;100337.00;10291849;28;20131;-68
2022/08/14 22:44:37;;;;;;;7.85;7.03;;;;;;;23.19;45.05;100333.03;10294772;28;20062;-68
2022/08/14 22:49:38;;;;;;;10.48;7.45;;;;;;;23.15;45.85;100337.50;10277518;28;20061;-67
2022/08/14 22:54:39;;;;;;;7.63;6.93;;;;;;;23.12;45.92;100337.28;10294186;28;20058;-69
2022/08/14 22:59:39;;;;;;;8.93;8.10;;;;;;;23.09;46.30;100333.16;10294674;28;20545;-68
2022/08/14 23:04:40;;;;;;;9.15;8.13;;;;;;;23.06;46.38;100327.41;10294023;28;20038;-68
2022/08/14 23:09:42;;;;;;;7.35;6.75;;;;;;;23.06;46.47;100330.16;10294220;28;20033;-68
2022/08/14 23:14:42;;;;;;;9.48;8.57;;;;;;;23.00;46.66;100328.59;10295468;28;20486;-68
2022/08/14 23:19:42;;;;;;;7.53;6.82;;;;;;;22.93;46.86;100326.16;10294098;28;20034;-66
2022/08/14 23:24:43;;;;;;;14.10;8.10;;;;;;;22.87;46.94;100327.31;10294095;28;20027;-68
2022/08/14 23:29:43;;;;;;;8.77;7.88;;;;;;;22.85;47.06;100327.63;10277918;28;20034;-68
2022/08/14 23:34:44;;;;;;;9.13;8.23;;;;;;;22.85;47.46;100321.28;10296385;28;20455;-67
2022/08/14 23:39:44;;;;;;;9.88;8.15;;;;;;;22.79;47.55;100317.75;10338497;28;20093;-67